sensor_id;sensor_type;location;lat;lon;timestamp;temperature;humidity
75899;DHT22;64576;50.460;4.866;2022-12-18T00:01:26;-6.46;98.34
75899;DHT22;64576;50.460;4.866;2022-12-18T00:03:53;-6.56;98.30
75899;DHT22;64576;50.460;4.866;2022-12-18T00:06:19;-6.55;98.57
75899;DHT22;64576;50.460;4.866;2022-12-18T00:08:46;-6.56;98.45
75899;DHT22;64576;50.460;4.866;2022-12-18T00:11:15;-6.39;98.69
75899;DHT22;64576;50.460;4.866;2022-12-18T00:13:41;-6.17;98.22
75899;DHT22;64576;50.460;4.866;2022-12-18T00:16:10;-5.97;97.29
75899;DHT22;64576;50.460;4.866;2022-12-18T00:18:36;-5.94;97.36
75899;DHT22;64576;50.460;4.866;2022-12-18T00:21:04;-6.06;97.59
75899;DHT22;64576;50.460;4.866;2022-12-18T00:23:30;-5.97;96.66
75899;DHT22;64576;50.460;4.866;2022-12-18T00:26:00;-5.82;95.65
75899;DHT22;64576;50.460;4.866;2022-12-18T00:28:25;-5.69;94.71
75899;DHT22;64576;50.460;4.866;2022-12-18T00:30:51;-5.82;95.22
75899;DHT22;64576;50.460;4.866;2022-12-18T00:33:23;-5.86;95.49
75899;DHT22;64576;50.460;4.866;2022-12-18T00:35:49;-6.00;95.59
75899;DHT22;64576;50.460;4.866;2022-12-18T00:38:14;-6.08;95.75
75899;DHT22;64576;50.460;4.866;2022-12-18T00:40:39;-5.93;95.37
75899;DHT22;64576;50.460;4.866;2022-12-18T00:43:04;-5.82;94.87
75899;DHT22;64576;50.460;4.866;2022-12-18T00:45:31;-5.83;94.57
75899;DHT22;64576;50.460;4.866;2022-12-18T00:47:56;-5.86;94.59
75899;DHT22;64576;50.460;4.866;2022-12-18T00:50:23;-5.87;94.51
75899;DHT22;64576;50.460;4.866;2022-12-18T00:52:49;-5.85;94.28
75899;DHT22;64576;50.460;4.866;2022-12-18T00:55:14;-5.89;94.16
75899;DHT22;64576;50.460;4.866;2022-12-18T00:57:40;-5.76;93.55
75899;DHT22;64576;50.460;4.866;2022-12-18T01:00:07;-5.97;93.96
75899;DHT22;64576;50.460;4.866;2022-12-18T01:02:33;-6.17;94.85
75899;DHT22;64576;50.460;4.866;2022-12-18T01:04:59;-6.41;95.54
75899;DHT22;64576;50.460;4.866;2022-12-18T01:07:24;-6.42;95.87
75899;DHT22;64576;50.460;4.866;2022-12-18T01:09:49;-6.35;95.93
75899;DHT22;64576;50.460;4.866;2022-12-18T01:12:15;-6.29;95.53
75899;DHT22;64576;50.460;4.866;2022-12-18T01:14:40;-6.29;95.34
75899;DHT22;64576;50.460;4.866;2022-12-18T01:17:06;-6.13;94.58
75899;DHT22;64576;50.460;4.866;2022-12-18T01:19:31;-6.04;94.23
75899;DHT22;64576;50.460;4.866;2022-12-18T01:21:57;-5.87;93.41
75899;DHT22;64576;50.460;4.866;2022-12-18T01:24:22;-6.07;93.76
75899;DHT22;64576;50.460;4.866;2022-12-18T01:26:48;-6.11;94.13
75899;DHT22;64576;50.460;4.866;2022-12-18T01:29:13;-6.10;94.12
75899;DHT22;64576;50.460;4.866;2022-12-18T01:31:38;-6.17;94.24
75899;DHT22;64576;50.460;4.866;2022-12-18T01:34:05;-6.04;93.34
75899;DHT22;64576;50.460;4.866;2022-12-18T01:36:33;-5.99;92.71
75899;DHT22;64576;50.460;4.866;2022-12-18T01:39:00;-5.73;91.06
75899;DHT22;64576;50.460;4.866;2022-12-18T01:41:28;-5.66;90.58
75899;DHT22;64576;50.460;4.866;2022-12-18T01:48:01;-6.04;92.19
75899;DHT22;64576;50.460;4.866;2022-12-18T01:53:19;-6.44;93.40
75899;DHT22;64576;50.460;4.866;2022-12-18T01:55:56;-6.66;94.42
75899;DHT22;64576;50.460;4.866;2022-12-18T01:58:24;-6.84;95.30
75899;DHT22;64576;50.460;4.866;2022-12-18T02:00:54;-7.01;95.84
75899;DHT22;64576;50.460;4.866;2022-12-18T02:03:19;-7.10;95.95
75899;DHT22;64576;50.460;4.866;2022-12-18T02:06:00;-7.14;96.37
75899;DHT22;64576;50.460;4.866;2022-12-18T02:08:45;-7.05;96.05
75899;DHT22;64576;50.460;4.866;2022-12-18T02:14:38;-7.12;96.01
75899;DHT22;64576;50.460;4.866;2022-12-18T02:17:15;-7.12;95.64
75899;DHT22;64576;50.460;4.866;2022-12-18T02:20:02;-7.07;95.53
75899;DHT22;64576;50.460;4.866;2022-12-18T02:22:46;-7.21;95.53
75899;DHT22;64576;50.460;4.866;2022-12-18T02:28:00;-7.27;96.41
75899;DHT22;64576;50.460;4.866;2022-12-18T02:30:29;-7.18;96.42
75899;DHT22;64576;50.460;4.866;2022-12-18T02:32:57;-6.80;94.82
75899;DHT22;64576;50.460;4.866;2022-12-18T02:35:27;-6.71;93.57
75899;DHT22;64576;50.460;4.866;2022-12-18T02:37:55;-6.49;92.75
75899;DHT22;64576;50.460;4.866;2022-12-18T02:40:22;-6.41;91.69
75899;DHT22;64576;50.460;4.866;2022-12-18T02:42:48;-6.31;91.07
75899;DHT22;64576;50.460;4.866;2022-12-18T02:45:14;-6.44;91.18
75899;DHT22;64576;50.460;4.866;2022-12-18T02:47:42;-6.66;92.15
75899;DHT22;64576;50.460;4.866;2022-12-18T02:50:35;-6.65;92.86
75899;DHT22;64576;50.460;4.866;2022-12-18T02:58:59;-6.45;91.41
75899;DHT22;64576;50.460;4.866;2022-12-18T03:01:33;-6.46;90.46
75899;DHT22;64576;50.460;4.866;2022-12-18T03:04:16;-6.38;90.32
75899;DHT22;64576;50.460;4.866;2022-12-18T03:06:46;-6.28;89.55
75899;DHT22;64576;50.460;4.866;2022-12-18T03:09:21;-6.08;89.16
75899;DHT22;64576;50.460;4.866;2022-12-18T03:11:53;-6.01;88.90
75899;DHT22;64576;50.460;4.866;2022-12-18T03:14:40;-5.99;88.33
75899;DHT22;64576;50.460;4.866;2022-12-18T03:17:10;-5.82;87.59
75899;DHT22;64576;50.460;4.866;2022-12-18T03:19:37;-5.90;88.16
75899;DHT22;64576;50.460;4.866;2022-12-18T03:22:05;-5.99;88.36
75899;DHT22;64576;50.460;4.866;2022-12-18T03:24:33;-5.94;88.50
75899;DHT22;64576;50.460;4.866;2022-12-18T03:27:01;-6.13;88.74
75899;DHT22;64576;50.460;4.866;2022-12-18T03:29:34;-6.18;89.65
75899;DHT22;64576;50.460;4.866;2022-12-18T03:32:05;-6.46;90.11
75899;DHT22;64576;50.460;4.866;2022-12-18T03:34:35;-7.05;91.80
75899;DHT22;64576;50.460;4.866;2022-12-18T03:37:01;-7.42;93.29
75899;DHT22;64576;50.460;4.866;2022-12-18T03:39:27;-7.63;94.13
75899;DHT22;64576;50.460;4.866;2022-12-18T03:44:34;-7.93;95.44
75899;DHT22;64576;50.460;4.866;2022-12-18T03:47:18;-7.80;95.43
75899;DHT22;64576;50.460;4.866;2022-12-18T03:49:53;-7.63;95.01
75899;DHT22;64576;50.460;4.866;2022-12-18T03:52:26;-7.58;94.64
75899;DHT22;64576;50.460;4.866;2022-12-18T03:54:53;-7.43;94.32
75899;DHT22;64576;50.460;4.866;2022-12-18T03:57:23;-7.18;93.23
75899;DHT22;64576;50.460;4.866;2022-12-18T03:59:54;-7.31;93.11
75899;DHT22;64576;50.460;4.866;2022-12-18T04:02:21;-7.12;92.94
75899;DHT22;64576;50.460;4.866;2022-12-18T04:04:50;-7.21;92.95
75899;DHT22;64576;50.460;4.866;2022-12-18T04:07:17;-7.30;93.25
75899;DHT22;64576;50.460;4.866;2022-12-18T04:09:44;-7.34;93.10
75899;DHT22;64576;50.460;4.866;2022-12-18T04:12:10;-7.63;93.33
75899;DHT22;64576;50.460;4.866;2022-12-18T04:14:36;-7.42;93.81
75899;DHT22;64576;50.460;4.866;2022-12-18T04:17:02;-7.30;93.04
75899;DHT22;64576;50.460;4.866;2022-12-18T04:19:27;-7.22;92.87
75899;DHT22;64576;50.460;4.866;2022-12-18T04:21:53;-7.12;92.33
75899;DHT22;64576;50.460;4.866;2022-12-18T04:24:18;-7.11;92.05
75899;DHT22;64576;50.460;4.866;2022-12-18T04:26:44;-6.84;91.66
75899;DHT22;64576;50.460;4.866;2022-12-18T04:29:09;-6.55;90.35
75899;DHT22;64576;50.460;4.866;2022-12-18T04:31:35;-6.48;89.58
75899;DHT22;64576;50.460;4.866;2022-12-18T04:34:00;-6.52;89.90
75899;DHT22;64576;50.460;4.866;2022-12-18T04:36:25;-6.21;89.03
75899;DHT22;64576;50.460;4.866;2022-12-18T04:38:51;-6.18;88.54
75899;DHT22;64576;50.460;4.866;2022-12-18T04:41:16;-6.14;88.23
75899;DHT22;64576;50.460;4.866;2022-12-18T04:43:42;-6.11;88.27
75899;DHT22;64576;50.460;4.866;2022-12-18T04:46:07;-5.99;87.80
75899;DHT22;64576;50.460;4.866;2022-12-18T04:48:34;-5.96;87.30
75899;DHT22;64576;50.460;4.866;2022-12-18T04:50:59;-5.83;87.01
75899;DHT22;64576;50.460;4.866;2022-12-18T04:53:25;-5.79;86.74
75899;DHT22;64576;50.460;4.866;2022-12-18T04:55:50;-5.79;86.59
75899;DHT22;64576;50.460;4.866;2022-12-18T04:58:15;-5.90;87.13
75899;DHT22;64576;50.460;4.866;2022-12-18T05:00:41;-6.06;87.45
75899;DHT22;64576;50.460;4.866;2022-12-18T05:03:06;-6.15;87.98
75899;DHT22;64576;50.460;4.866;2022-12-18T05:05:34;-6.18;88.10
75899;DHT22;64576;50.460;4.866;2022-12-18T05:08:00;-6.10;87.78
75899;DHT22;64576;50.460;4.866;2022-12-18T05:10:25;-6.07;87.82
75899;DHT22;64576;50.460;4.866;2022-12-18T05:12:51;-6.17;87.80
75899;DHT22;64576;50.460;4.866;2022-12-18T05:15:32;-6.32;88.29
75899;DHT22;64576;50.460;4.866;2022-12-18T05:17:58;-6.50;88.90
75899;DHT22;64576;50.460;4.866;2022-12-18T05:20:24;-6.80;89.95
75899;DHT22;64576;50.460;4.866;2022-12-18T05:22:50;-6.93;90.44
75899;DHT22;64576;50.460;4.866;2022-12-18T05:25:15;-7.05;91.05
75899;DHT22;64576;50.460;4.866;2022-12-18T05:27:41;-7.08;91.49
75899;DHT22;64576;50.460;4.866;2022-12-18T05:30:07;-7.11;91.56
75899;DHT22;64576;50.460;4.866;2022-12-18T05:32:33;-7.07;91.74
75899;DHT22;64576;50.460;4.866;2022-12-18T05:34:58;-6.93;91.19
75899;DHT22;64576;50.460;4.866;2022-12-18T05:37:23;-6.77;90.85
75899;DHT22;64576;50.460;4.866;2022-12-18T05:39:49;-6.80;90.78
75899;DHT22;64576;50.460;4.866;2022-12-18T05:42:14;-6.41;89.28
75899;DHT22;64576;50.460;4.866;2022-12-18T05:44:39;-6.18;88.09
75899;DHT22;64576;50.460;4.866;2022-12-18T05:47:05;-6.25;88.05
75899;DHT22;64576;50.460;4.866;2022-12-18T05:49:30;-6.18;88.67
75899;DHT22;64576;50.460;4.866;2022-12-18T05:51:56;-6.17;88.15
75899;DHT22;64576;50.460;4.866;2022-12-18T05:54:21;-6.08;87.99
75899;DHT22;64576;50.460;4.866;2022-12-18T05:56:47;-6.17;88.03
75899;DHT22;64576;50.460;4.866;2022-12-18T05:59:12;-6.07;87.51
75899;DHT22;64576;50.460;4.866;2022-12-18T06:01:37;-6.00;87.33
75899;DHT22;64576;50.460;4.866;2022-12-18T06:04:03;-6.00;87.54
75899;DHT22;64576;50.460;4.866;2022-12-18T06:06:28;-5.80;86.61
75899;DHT22;64576;50.460;4.866;2022-12-18T06:08:55;-5.76;86.54
75899;DHT22;64576;50.460;4.866;2022-12-18T06:11:26;-5.68;86.20
75899;DHT22;64576;50.460;4.866;2022-12-18T06:13:56;-5.68;86.15
75899;DHT22;64576;50.460;4.866;2022-12-18T06:16:21;-5.72;86.39
75899;DHT22;64576;50.460;4.866;2022-12-18T06:18:47;-5.78;86.40
75899;DHT22;64576;50.460;4.866;2022-12-18T06:21:12;-5.89;86.63
75899;DHT22;64576;50.460;4.866;2022-12-18T06:23:38;-6.13;87.25
75899;DHT22;64576;50.460;4.866;2022-12-18T06:26:09;-6.28;87.92
75899;DHT22;64576;50.460;4.866;2022-12-18T06:28:35;-6.46;88.41
75899;DHT22;64576;50.460;4.866;2022-12-18T06:31:00;-6.65;89.20
75899;DHT22;64576;50.460;4.866;2022-12-18T06:33:27;-6.76;89.69
75899;DHT22;64576;50.460;4.866;2022-12-18T06:35:53;-6.82;89.94
75899;DHT22;64576;50.460;4.866;2022-12-18T06:38:19;-6.53;89.08
75899;DHT22;64576;50.460;4.866;2022-12-18T06:40:44;-6.48;89.03
75899;DHT22;64576;50.460;4.866;2022-12-18T06:43:10;-6.45;89.07
75899;DHT22;64576;50.460;4.866;2022-12-18T06:45:35;-6.50;89.41
75899;DHT22;64576;50.460;4.866;2022-12-18T06:48:01;-6.46;89.53
75899;DHT22;64576;50.460;4.866;2022-12-18T06:50:26;-6.44;89.20
75899;DHT22;64576;50.460;4.866;2022-12-18T06:52:51;-6.37;88.78
75899;DHT22;64576;50.460;4.866;2022-12-18T06:55:17;-6.38;88.46
75899;DHT22;64576;50.460;4.866;2022-12-18T06:57:42;-6.50;88.89
75899;DHT22;64576;50.460;4.866;2022-12-18T07:00:08;-6.53;88.90
75899;DHT22;64576;50.460;4.866;2022-12-18T07:02:33;-6.39;88.50
75899;DHT22;64576;50.460;4.866;2022-12-18T07:04:59;-6.39;88.78
75899;DHT22;64576;50.460;4.866;2022-12-18T07:07:24;-6.45;88.74
75899;DHT22;64576;50.460;4.866;2022-12-18T07:09:50;-6.34;88.75
75899;DHT22;64576;50.460;4.866;2022-12-18T07:12:15;-6.17;88.48
75899;DHT22;64576;50.460;4.866;2022-12-18T07:14:41;-6.08;88.36
75899;DHT22;64576;50.460;4.866;2022-12-18T07:17:06;-6.15;88.22
75899;DHT22;64576;50.460;4.866;2022-12-18T07:19:33;-6.35;88.87
75899;DHT22;64576;50.460;4.866;2022-12-18T07:21:58;-6.07;88.50
75899;DHT22;64576;50.460;4.866;2022-12-18T07:24:24;-6.04;87.86
75899;DHT22;64576;50.460;4.866;2022-12-18T07:26:49;-6.11;88.16
75899;DHT22;64576;50.460;4.866;2022-12-18T07:29:14;-6.14;88.24
75899;DHT22;64576;50.460;4.866;2022-12-18T07:31:40;-6.14;88.45
75899;DHT22;64576;50.460;4.866;2022-12-18T07:34:10;-6.11;88.71
75899;DHT22;64576;50.460;4.866;2022-12-18T07:36:35;-6.11;88.60
75899;DHT22;64576;50.460;4.866;2022-12-18T07:39:01;-6.24;89.07
75899;DHT22;64576;50.460;4.866;2022-12-18T07:41:26;-6.32;89.27
75899;DHT22;64576;50.460;4.866;2022-12-18T07:43:51;-6.25;89.17
75899;DHT22;64576;50.460;4.866;2022-12-18T07:46:17;-6.11;88.71
75899;DHT22;64576;50.460;4.866;2022-12-18T07:48:43;-5.85;88.00
75899;DHT22;64576;50.460;4.866;2022-12-18T07:51:08;-5.52;86.85
75899;DHT22;64576;50.460;4.866;2022-12-18T07:53:35;-5.39;86.54
75899;DHT22;64576;50.460;4.866;2022-12-18T07:56:06;-5.28;85.85
75899;DHT22;64576;50.460;4.866;2022-12-18T07:58:32;-5.38;86.34
75899;DHT22;64576;50.460;4.866;2022-12-18T08:01:09;-5.41;86.64
75899;DHT22;64576;50.460;4.866;2022-12-18T08:03:35;-5.34;86.39
75899;DHT22;64576;50.460;4.866;2022-12-18T08:06:02;-5.28;86.24
75899;DHT22;64576;50.460;4.866;2022-12-18T08:08:28;-5.23;86.11
75899;DHT22;64576;50.460;4.866;2022-12-18T08:10:54;-5.04;85.71
75899;DHT22;64576;50.460;4.866;2022-12-18T08:13:19;-4.86;84.90
75899;DHT22;64576;50.460;4.866;2022-12-18T08:15:44;-4.56;84.30
75899;DHT22;64576;50.460;4.866;2022-12-18T08:18:10;-4.13;82.54
75899;DHT22;64576;50.460;4.866;2022-12-18T08:20:35;-3.48;80.47
75899;DHT22;64576;50.460;4.866;2022-12-18T08:23:00;-3.28;79.60
75899;DHT22;64576;50.460;4.866;2022-12-18T08:25:25;-2.89;77.59
75899;DHT22;64576;50.460;4.866;2022-12-18T08:27:51;-2.95;77.99
75899;DHT22;64576;50.460;4.866;2022-12-18T08:30:16;-3.20;78.87
75899;DHT22;64576;50.460;4.866;2022-12-18T08:32:41;-2.99;78.04
75899;DHT22;64576;50.460;4.866;2022-12-18T08:35:07;-3.00;78.20
75899;DHT22;64576;50.460;4.866;2022-12-18T08:37:33;-2.97;78.60
75899;DHT22;64576;50.460;4.866;2022-12-18T08:39:58;-2.57;76.76
75899;DHT22;64576;50.460;4.866;2022-12-18T08:42:24;-2.42;76.21
75899;DHT22;64576;50.460;4.866;2022-12-18T08:45:08;-2.80;77.01
75899;DHT22;64576;50.460;4.866;2022-12-18T08:47:34;-3.04;78.42
75899;DHT22;64576;50.460;4.866;2022-12-18T08:49:59;-3.10;78.60
75899;DHT22;64576;50.460;4.866;2022-12-18T08:52:24;-3.33;79.47
75899;DHT22;64576;50.460;4.866;2022-12-18T08:54:50;-3.30;79.79
75899;DHT22;64576;50.460;4.866;2022-12-18T08:57:15;-3.14;79.32
75899;DHT22;64576;50.460;4.866;2022-12-18T08:59:41;-3.03;78.94
75899;DHT22;64576;50.460;4.866;2022-12-18T09:02:09;-2.99;79.24
75899;DHT22;64576;50.460;4.866;2022-12-18T09:04:34;-2.88;78.65
75899;DHT22;64576;50.460;4.866;2022-12-18T09:07:00;-2.95;79.06
75899;DHT22;64576;50.460;4.866;2022-12-18T09:09:25;-2.99;79.39
75899;DHT22;64576;50.460;4.866;2022-12-18T09:11:50;-2.93;79.61
75899;DHT22;64576;50.460;4.866;2022-12-18T09:14:16;-2.83;79.69
75899;DHT22;64576;50.460;4.866;2022-12-18T09:16:41;-2.99;79.72
75899;DHT22;64576;50.460;4.866;2022-12-18T09:19:07;-2.97;80.06
75899;DHT22;64576;50.460;4.866;2022-12-18T09:21:34;-2.80;79.62
75899;DHT22;64576;50.460;4.866;2022-12-18T09:24:04;-2.75;79.38
75899;DHT22;64576;50.460;4.866;2022-12-18T09:26:30;-2.69;79.37
75899;DHT22;64576;50.460;4.866;2022-12-18T09:28:55;-2.69;79.16
75899;DHT22;64576;50.460;4.866;2022-12-18T09:31:22;-2.44;79.23
75899;DHT22;64576;50.460;4.866;2022-12-18T09:33:48;-2.47;79.61
75899;DHT22;64576;50.460;4.866;2022-12-18T09:36:16;-2.44;79.74
75899;DHT22;64576;50.460;4.866;2022-12-18T09:38:42;-2.38;78.50
75899;DHT22;64576;50.460;4.866;2022-12-18T09:44:15;-2.29;78.58
75899;DHT22;64576;50.460;4.866;2022-12-18T09:49:29;-2.33;77.80
75899;DHT22;64576;50.460;4.866;2022-12-18T09:52:21;-2.33;78.55
75899;DHT22;64576;50.460;4.866;2022-12-18T09:54:52;-2.21;78.46
75899;DHT22;64576;50.460;4.866;2022-12-18T09:57:22;-2.17;78.38
75899;DHT22;64576;50.460;4.866;2022-12-18T09:59:53;-2.10;78.03
75899;DHT22;64576;50.460;4.866;2022-12-18T10:02:21;-2.09;77.35
75899;DHT22;64576;50.460;4.866;2022-12-18T10:05:09;-2.00;77.22
75899;DHT22;64576;50.460;4.866;2022-12-18T10:10:35;-1.89;77.00
75899;DHT22;64576;50.460;4.866;2022-12-18T10:18:44;-1.71;75.23
75899;DHT22;64576;50.460;4.866;2022-12-18T10:21:16;-1.61;74.62
75899;DHT22;64576;50.460;4.866;2022-12-18T10:23:57;-1.47;74.38
75899;DHT22;64576;50.460;4.866;2022-12-18T10:26:25;-1.36;73.10
75899;DHT22;64576;50.460;4.866;2022-12-18T10:28:51;-1.34;73.26
75899;DHT22;64576;50.460;4.866;2022-12-18T10:31:19;-1.34;73.47
75899;DHT22;64576;50.460;4.866;2022-12-18T10:33:45;-1.31;72.67
75899;DHT22;64576;50.460;4.866;2022-12-18T10:36:11;-1.26;72.31
75899;DHT22;64576;50.460;4.866;2022-12-18T10:38:36;-1.21;72.21
75899;DHT22;64576;50.460;4.866;2022-12-18T10:41:05;-1.21;71.69
75899;DHT22;64576;50.460;4.866;2022-12-18T10:43:36;-1.16;71.94
75899;DHT22;64576;50.460;4.866;2022-12-18T10:48:35;-1.07;72.17
75899;DHT22;64576;50.460;4.866;2022-12-18T10:51:02;-1.09;71.67
75899;DHT22;64576;50.460;4.866;2022-12-18T10:53:29;-1.00;71.53
75899;DHT22;64576;50.460;4.866;2022-12-18T10:55:58;-0.93;70.41
75899;DHT22;64576;50.460;4.866;2022-12-18T10:58:30;-0.92;70.75
75899;DHT22;64576;50.460;4.866;2022-12-18T11:01:04;-0.88;70.07
75899;DHT22;64576;50.460;4.866;2022-12-18T11:06:22;-0.78;69.16
75899;DHT22;64576;50.460;4.866;2022-12-18T11:09:04;-0.72;68.78
75899;DHT22;64576;50.460;4.866;2022-12-18T11:11:31;-0.72;69.80
75899;DHT22;64576;50.460;4.866;2022-12-18T11:14:03;-0.73;69.63
75899;DHT22;64576;50.460;4.866;2022-12-18T11:16:32;-0.71;68.51
75899;DHT22;64576;50.460;4.866;2022-12-18T11:19:21;-0.66;68.78
75899;DHT22;64576;50.460;4.866;2022-12-18T11:21:49;-0.62;68.58
75899;DHT22;64576;50.460;4.866;2022-12-18T11:24:20;-0.57;68.34
75899;DHT22;64576;50.460;4.866;2022-12-18T11:26:46;-0.57;68.24
75899;DHT22;64576;50.460;4.866;2022-12-18T11:29:17;-0.54;68.25
75899;DHT22;64576;50.460;4.866;2022-12-18T11:31:43;-0.55;68.97
75899;DHT22;64576;50.460;4.866;2022-12-18T11:36:45;-0.54;68.08
75899;DHT22;64576;50.460;4.866;2022-12-18T11:42:27;-0.48;68.16
75899;DHT22;64576;50.460;4.866;2022-12-18T11:50:21;-0.42;68.11
75899;DHT22;64576;50.460;4.866;2022-12-18T11:52:49;-0.41;67.82
75899;DHT22;64576;50.460;4.866;2022-12-18T11:58:35;-0.30;68.02
75899;DHT22;64576;50.460;4.866;2022-12-18T12:09:09;-0.33;67.28
75899;DHT22;64576;50.460;4.866;2022-12-18T12:14:34;-0.41;68.10
75899;DHT22;64576;50.460;4.866;2022-12-18T12:17:37;-0.42;68.41
75899;DHT22;64576;50.460;4.866;2022-12-18T12:23:18;-0.37;68.63
75899;DHT22;64576;50.460;4.866;2022-12-18T12:26:11;-0.34;68.61
75899;DHT22;64576;50.460;4.866;2022-12-18T12:28:52;-0.37;68.83
75899;DHT22;64576;50.460;4.866;2022-12-18T12:31:32;-0.33;69.48
75899;DHT22;64576;50.460;4.866;2022-12-18T12:34:01;-0.31;69.54
75899;DHT22;64576;50.460;4.866;2022-12-18T12:36:55;-0.35;69.31
75899;DHT22;64576;50.460;4.866;2022-12-18T12:39:35;-0.28;69.74
75899;DHT22;64576;50.460;4.866;2022-12-18T12:42:05;-0.38;69.65
75899;DHT22;64576;50.460;4.866;2022-12-18T12:44:54;-0.28;69.55
75899;DHT22;64576;50.460;4.866;2022-12-18T12:47:47;-0.27;69.66
75899;DHT22;64576;50.460;4.866;2022-12-18T12:50:16;-0.34;69.21
75899;DHT22;64576;50.460;4.866;2022-12-18T12:52:51;-0.35;69.85
75899;DHT22;64576;50.460;4.866;2022-12-18T12:55:19;-0.35;69.47
75899;DHT22;64576;50.460;4.866;2022-12-18T12:58:03;-0.42;69.56
75899;DHT22;64576;50.460;4.866;2022-12-18T13:00:38;-0.40;69.37
75899;DHT22;64576;50.460;4.866;2022-12-18T13:03:08;-0.40;69.84
75899;DHT22;64576;50.460;4.866;2022-12-18T13:05:43;-0.41;69.77
75899;DHT22;64576;50.460;4.866;2022-12-18T13:08:12;-0.40;70.06
75899;DHT22;64576;50.460;4.866;2022-12-18T13:10:47;-0.40;69.97
75899;DHT22;64576;50.460;4.866;2022-12-18T13:13:13;-0.33;70.26
75899;DHT22;64576;50.460;4.866;2022-12-18T13:15:48;-0.33;70.84
75899;DHT22;64576;50.460;4.866;2022-12-18T13:18:23;-0.41;69.96
75899;DHT22;64576;50.460;4.866;2022-12-18T13:23:27;-0.42;70.51
75899;DHT22;64576;50.460;4.866;2022-12-18T13:26:28;-0.44;70.40
75899;DHT22;64576;50.460;4.866;2022-12-18T13:34:23;-0.42;70.55
75899;DHT22;64576;50.460;4.866;2022-12-18T13:36:49;-0.44;70.65
75899;DHT22;64576;50.460;4.866;2022-12-18T13:41:45;-0.40;70.99
75899;DHT22;64576;50.460;4.866;2022-12-18T13:44:39;-0.41;71.06
75899;DHT22;64576;50.460;4.866;2022-12-18T13:47:36;-0.44;70.76
75899;DHT22;64576;50.460;4.866;2022-12-18T13:50:23;-0.44;71.27
75899;DHT22;64576;50.460;4.866;2022-12-18T13:52:50;-0.38;70.86
75899;DHT22;64576;50.460;4.866;2022-12-18T13:55:19;-0.40;70.88
75899;DHT22;64576;50.460;4.866;2022-12-18T13:57:45;-0.35;70.92
75899;DHT22;64576;50.460;4.866;2022-12-18T14:00:25;-0.42;70.29
75899;DHT22;64576;50.460;4.866;2022-12-18T14:02:51;-0.40;71.15
75899;DHT22;64576;50.460;4.866;2022-12-18T14:05:28;-0.44;70.73
75899;DHT22;64576;50.460;4.866;2022-12-18T14:08:00;-0.50;70.41
75899;DHT22;64576;50.460;4.866;2022-12-18T14:10:27;-0.50;70.84
75899;DHT22;64576;50.460;4.866;2022-12-18T14:12:53;-0.55;70.94
75899;DHT22;64576;50.460;4.866;2022-12-18T14:15:34;-0.62;70.78
75899;DHT22;64576;50.460;4.866;2022-12-18T14:18:02;-0.64;70.94
75899;DHT22;64576;50.460;4.866;2022-12-18T14:20:31;-0.61;71.22
75899;DHT22;64576;50.460;4.866;2022-12-18T14:22:58;-0.61;70.90
75899;DHT22;64576;50.460;4.866;2022-12-18T14:25:29;-0.62;71.08
75899;DHT22;64576;50.460;4.866;2022-12-18T14:30:37;-0.66;70.78
75899;DHT22;64576;50.460;4.866;2022-12-18T14:35:38;-0.66;70.69
75899;DHT22;64576;50.460;4.866;2022-12-18T14:41:12;-0.68;70.48
75899;DHT22;64576;50.460;4.866;2022-12-18T14:43:40;-0.68;70.63
75899;DHT22;64576;50.460;4.866;2022-12-18T14:46:27;-0.68;70.83
75899;DHT22;64576;50.460;4.866;2022-12-18T14:48:52;-0.69;70.65
75899;DHT22;64576;50.460;4.866;2022-12-18T14:51:24;-0.68;70.95
75899;DHT22;64576;50.460;4.866;2022-12-18T14:53:59;-0.68;70.77
75899;DHT22;64576;50.460;4.866;2022-12-18T14:56:30;-0.66;70.39
75899;DHT22;64576;50.460;4.866;2022-12-18T14:58:58;-0.68;70.62
75899;DHT22;64576;50.460;4.866;2022-12-18T15:01:39;-0.69;70.91
75899;DHT22;64576;50.460;4.866;2022-12-18T15:04:30;-0.72;70.75
75899;DHT22;64576;50.460;4.866;2022-12-18T15:07:15;-0.73;70.85
75899;DHT22;64576;50.460;4.866;2022-12-18T15:09:43;-0.75;71.47
75899;DHT22;64576;50.460;4.866;2022-12-18T15:12:39;-0.75;71.02
75899;DHT22;64576;50.460;4.866;2022-12-18T15:20:40;-0.76;71.09
75899;DHT22;64576;50.460;4.866;2022-12-18T15:23:14;-0.76;70.97
75899;DHT22;64576;50.460;4.866;2022-12-18T15:25:40;-0.75;71.38
75899;DHT22;64576;50.460;4.866;2022-12-18T15:28:27;-0.75;71.35
75899;DHT22;64576;50.460;4.866;2022-12-18T15:30:59;-0.78;71.62
75899;DHT22;64576;50.460;4.866;2022-12-18T15:33:26;-0.78;71.54
75899;DHT22;64576;50.460;4.866;2022-12-18T15:35:56;-0.78;71.23
75899;DHT22;64576;50.460;4.866;2022-12-18T15:38:22;-0.75;71.08
75899;DHT22;64576;50.460;4.866;2022-12-18T15:40:47;-0.72;71.27
75899;DHT22;64576;50.460;4.866;2022-12-18T15:43:13;-0.76;71.65
75899;DHT22;64576;50.460;4.866;2022-12-18T15:45:57;-0.78;71.53
75899;DHT22;64576;50.460;4.866;2022-12-18T15:48:22;-0.81;71.59
75899;DHT22;64576;50.460;4.866;2022-12-18T15:50:50;-0.75;71.24
75899;DHT22;64576;50.460;4.866;2022-12-18T15:53:15;-0.78;71.35
75899;DHT22;64576;50.460;4.866;2022-12-18T15:55:41;-0.78;70.94
75899;DHT22;64576;50.460;4.866;2022-12-18T15:58:25;-0.75;70.90
75899;DHT22;64576;50.460;4.866;2022-12-18T16:00:50;-0.75;70.84
75899;DHT22;64576;50.460;4.866;2022-12-18T16:03:16;-0.73;70.98
75899;DHT22;64576;50.460;4.866;2022-12-18T16:05:41;-0.73;71.06
75899;DHT22;64576;50.460;4.866;2022-12-18T16:08:07;-0.72;70.96
75899;DHT22;64576;50.460;4.866;2022-12-18T16:10:32;-0.72;70.75
75899;DHT22;64576;50.460;4.866;2022-12-18T16:12:57;-0.69;70.90
75899;DHT22;64576;50.460;4.866;2022-12-18T16:15:23;-0.68;70.91
75899;DHT22;64576;50.460;4.866;2022-12-18T16:17:48;-0.68;70.37
75899;DHT22;64576;50.460;4.866;2022-12-18T16:20:20;-0.68;70.72
75899;DHT22;64576;50.460;4.866;2022-12-18T16:22:46;-0.65;70.67
75899;DHT22;64576;50.460;4.866;2022-12-18T16:25:23;-0.66;70.84
75899;DHT22;64576;50.460;4.866;2022-12-18T16:27:49;-0.61;69.90
75899;DHT22;64576;50.460;4.866;2022-12-18T16:30:21;-0.62;70.07
75899;DHT22;64576;50.460;4.866;2022-12-18T16:32:46;-0.60;69.96
75899;DHT22;64576;50.460;4.866;2022-12-18T16:35:14;-0.61;69.74
75899;DHT22;64576;50.460;4.866;2022-12-18T16:37:40;-0.57;69.50
75899;DHT22;64576;50.460;4.866;2022-12-18T16:40:08;-0.55;69.70
75899;DHT22;64576;50.460;4.866;2022-12-18T16:42:35;-0.54;69.53
75899;DHT22;64576;50.460;4.866;2022-12-18T16:45:01;-0.54;69.83
75899;DHT22;64576;50.460;4.866;2022-12-18T16:47:27;-0.50;69.65
75899;DHT22;64576;50.460;4.866;2022-12-18T16:49:52;-0.52;69.29
75899;DHT22;64576;50.460;4.866;2022-12-18T16:52:21;-0.47;69.24
75899;DHT22;64576;50.460;4.866;2022-12-18T16:54:46;-0.45;69.07
75899;DHT22;64576;50.460;4.866;2022-12-18T16:57:13;-0.38;68.60
75899;DHT22;64576;50.460;4.866;2022-12-18T16:59:38;-0.40;69.27
75899;DHT22;64576;50.460;4.866;2022-12-18T17:02:04;-0.40;68.64
75899;DHT22;64576;50.460;4.866;2022-12-18T17:04:29;-0.33;68.47
75899;DHT22;64576;50.460;4.866;2022-12-18T17:06:55;-0.38;69.27
75899;DHT22;64576;50.460;4.866;2022-12-18T17:09:20;-0.37;69.13
75899;DHT22;64576;50.460;4.866;2022-12-18T17:11:52;-0.37;69.29
75899;DHT22;64576;50.460;4.866;2022-12-18T17:14:20;-0.30;68.80
75899;DHT22;64576;50.460;4.866;2022-12-18T17:16:46;-0.30;68.86